Time;durP1;ratioP1;P1;durP2;ratioP2;P2;SDS_P1;SDS_P2;PMS_P1;PMS_P2;Temp;Humidity;BMP_temperature;BMP_pressure;BME280_temperature;BME280_humidity;BME280_pressure;Samples;Min_cycle;Max_cycle;Signal;HPM_P1;HPM_P2
2021/08/11 00:01:30;;;;;;;1.60;1.50;;;17.50;99.90;;;;;;5048522;28;20203;-68
2021/08/11 00:03:58;;;;;;;1.63;1.52;;;17.50;99.90;;;;;;5048311;28;20197;-68
2021/08/11 00:06:25;;;;;;;1.30;1.20;;;17.50;99.90;;;;;;5048453;28;20203;-68
2021/08/11 00:08:52;;;;;;;1.50;1.40;;;17.50;99.90;;;;;;5046511;28;20194;-68
2021/08/11 00:11:19;;;;;;;1.88;1.77;;;17.50;99.90;;;;;;5047505;28;20330;-68
2021/08/11 00:13:46;;;;;;;1.40;1.30;;;17.50;99.90;;;;;;5048221;28;20225;-68
2021/08/11 00:16:13;;;;;;;1.50;1.40;;;17.50;99.90;;;;;;5048388;28;20201;-68
2021/08/11 00:18:40;;;;;;;1.70;1.52;;;17.50;99.90;;;;;;5047979;28;20237;-68
2021/08/11 00:21:08;;;;;;;1.80;1.50;;;17.50;99.90;;;;;;5048117;28;20554;-68
2021/08/11 00:23:35;;;;;;;1.20;1.10;;;17.40;99.90;;;;;;5046506;28;20216;-68
2021/08/11 00:26:02;;;;;;;1.83;1.73;;;17.40;99.90;;;;;;5047454;28;20627;-68
2021/08/11 00:28:29;;;;;;;1.83;1.10;;;17.40;99.90;;;;;;5048352;28;20288;-68
2021/08/11 00:30:55;;;;;;;1.70;1.60;;;17.40;99.90;;;;;;5046533;28;20214;-68
2021/08/11 00:33:23;;;;;;;1.20;1.10;;;17.40;99.90;;;;;;5046434;28;20264;-68
2021/08/11 00:35:51;;;;;;;1.30;1.20;;;17.40;99.90;;;;;;5046876;28;20205;-68
2021/08/11 00:38:20;;;;;;;2.10;1.90;;;17.40;99.90;;;;;;5045249;28;20214;-68
2021/08/11 00:40:47;;;;;;;1.60;1.50;;;17.40;99.90;;;;;;5045763;28;20199;-68
2021/08/11 00:43:14;;;;;;;1.43;1.33;;;17.30;99.90;;;;;;5047845;28;20566;-68
2021/08/11 00:45:46;;;;;;;1.20;1.20;;;17.30;99.90;;;;;;5046411;28;21016;-68
2021/08/11 00:48:14;;;;;;;1.50;1.40;;;17.30;99.90;;;;;;5049441;28;20633;-67
2021/08/11 00:50:42;;;;;;;1.53;1.43;;;17.30;99.90;;;;;;5050232;28;20235;-68
2021/08/11 00:53:17;;;;;;;1.77;1.60;;;17.30;99.90;;;;;;5036845;28;20239;-68
2021/08/11 00:55:46;;;;;;;1.40;1.30;;;17.30;99.90;;;;;;5050710;28;20210;-68
2021/08/11 00:58:19;;;;;;;1.50;1.40;;;17.40;99.90;;;;;;5053774;28;20212;-68
2021/08/11 01:00:48;;;;;;;1.43;1.33;;;17.40;99.90;;;;;;5034902;28;20219;-68
2021/08/11 01:03:19;;;;;;;1.50;1.40;;;17.40;99.90;;;;;;5043435;28;20260;-68
2021/08/11 01:05:48;;;;;;;1.40;1.30;;;17.30;99.90;;;;;;5039467;28;20242;-69
2021/08/11 01:08:16;;;;;;;1.63;1.45;;;17.30;99.90;;;;;;5050510;28;20194;-69
2021/08/11 01:10:47;;;;;;;1.90;1.70;;;17.30;99.90;;;;;;5049732;28;20320;-68
2021/08/11 01:13:15;;;;;;;1.30;1.20;;;17.20;99.90;;;;;;5049693;28;20229;-68
2021/08/11 01:15:45;;;;;;;1.37;1.27;;;17.20;99.90;;;;;;5051993;28;20557;-68
2021/08/11 01:18:14;;;;;;;1.50;1.40;;;17.20;99.90;;;;;;5047961;28;20276;-67
2021/08/11 01:20:51;;;;;;;1.30;1.20;;;17.20;99.90;;;;;;5050419;28;20679;-67
2021/08/11 01:23:23;;;;;;;1.33;1.23;;;17.20;99.90;;;;;;5047986;28;20213;-68
2021/08/11 01:25:58;;;;;;;1.60;1.50;;;17.20;99.90;;;;;;5049620;28;20685;-68
2021/08/11 01:28:44;;;;;;;1.57;1.47;;;17.20;99.90;;;;;;5063339;28;20217;-68
2021/08/11 01:31:16;;;;;;;1.50;1.40;;;17.10;99.90;;;;;;5052954;28;20234;-68
2021/08/11 01:33:56;;;;;;;1.47;1.37;;;17.10;99.90;;;;;;5049115;28;20234;-68
2021/08/11 01:36:43;;;;;;;1.27;1.17;;;17.10;99.90;;;;;;5050060;28;20209;-68
2021/08/11 01:39:21;;;;;;;1.48;1.38;;;17.10;99.90;;;;;;5046808;28;20794;-68
2021/08/11 01:41:55;;;;;;;1.23;1.13;;;17.00;99.90;;;;;;5051369;28;20389;-68
2021/08/11 01:44:25;;;;;;;1.30;1.20;;;17.00;99.90;;;;;;5049340;28;20210;-68
2021/08/11 01:46:53;;;;;;;0.90;0.90;;;17.00;99.90;;;;;;5050114;28;20219;-68
2021/08/11 01:49:24;;;;;;;0.90;0.90;;;17.00;99.90;;;;;;5049198;28;20606;-68
2021/08/11 01:51:53;;;;;;;1.20;1.10;;;17.10;99.90;;;;;;5045274;28;20202;-68
2021/08/11 01:54:25;;;;;;;1.10;1.10;;;17.10;99.90;;;;;;5058396;28;20218;-68
2021/08/11 01:56:52;;;;;;;1.10;1.00;;;17.10;99.90;;;;;;5051014;28;20204;-68
2021/08/11 01:59:20;;;;;;;1.60;1.40;;;17.10;99.90;;;;;;5048400;28;20198;-68
2021/08/11 02:01:47;;;;;;;1.80;1.70;;;17.10;99.90;;;;;;5049343;28;20300;-68
2021/08/11 02:04:17;;;;;;;1.50;1.40;;;17.10;99.90;;;;;;5065500;28;20293;-68
2021/08/11 02:06:47;;;;;;;1.13;1.13;;;17.10;99.90;;;;;;5049456;28;20278;-68
2021/08/11 02:09:18;;;;;;;1.15;1.10;;;17.00;99.90;;;;;;5046652;28;20250;-68
2021/08/11 02:11:46;;;;;;;1.43;1.07;;;17.10;99.90;;;;;;5048937;28;20211;-68
2021/08/11 02:14:14;;;;;;;1.40;1.30;;;17.10;99.90;;;;;;5048957;28;20300;-69
2021/08/11 02:16:44;;;;;;;1.40;1.30;;;17.10;99.90;;;;;;5049356;28;20240;-69
2021/08/11 02:19:11;;;;;;;1.40;1.30;;;17.10;99.90;;;;;;5048699;28;20665;-68
2021/08/11 02:21:39;;;;;;;1.27;1.20;;;17.10;99.90;;;;;;5048657;28;20803;-69
2021/08/11 02:24:10;;;;;;;2.30;1.50;;;17.00;99.90;;;;;;5046303;28;20762;-68
2021/08/11 02:26:44;;;;;;;1.73;1.30;;;17.00;99.90;;;;;;5048921;28;20468;-68
2021/08/11 02:29:19;;;;;;;1.27;1.17;;;17.00;99.90;;;;;;5048278;28;20209;-69
2021/08/11 02:31:56;;;;;;;1.40;1.30;;;17.00;99.90;;;;;;5048626;28;20677;-68
2021/08/11 02:34:32;;;;;;;1.47;1.37;;;17.00;99.90;;;;;;5048254;28;20229;-68
2021/08/11 02:37:07;;;;;;;1.60;1.50;;;17.00;99.90;;;;;;5048640;28;20279;-68
2021/08/11 02:39:46;;;;;;;1.37;1.27;;;16.90;99.90;;;;;;5046520;28;20672;-68
2021/08/11 02:42:19;;;;;;;1.73;1.40;;;17.00;99.90;;;;;;5034429;28;20578;-68
2021/08/11 02:44:52;;;;;;;1.50;1.40;;;16.90;99.90;;;;;;5048088;28;20202;-69
2021/08/11 02:47:20;;;;;;;1.27;1.17;;;16.90;99.90;;;;;;5048837;28;20205;-68
2021/08/11 02:49:47;;;;;;;3.43;1.30;;;16.80;99.90;;;;;;5047970;28;20543;-68
2021/08/11 02:52:15;;;;;;;1.40;1.27;;;16.80;99.90;;;;;;5047613;28;20208;-69
2021/08/11 02:54:45;;;;;;;1.50;1.30;;;16.80;99.90;;;;;;5035681;28;20633;-68
2021/08/11 02:57:13;;;;;;;1.00;1.00;;;16.80;99.90;;;;;;5049473;28;20209;-68
2021/08/11 02:59:42;;;;;;;1.43;1.13;;;16.80;99.90;;;;;;5048079;28;20198;-68
2021/08/11 03:02:12;;;;;;;1.30;1.20;;;16.80;99.90;;;;;;5047989;28;20213;-68
2021/08/11 03:04:40;;;;;;;1.03;1.03;;;16.80;99.90;;;;;;5048286;28;20225;-68
2021/08/11 03:07:09;;;;;;;1.00;1.00;;;16.80;99.90;;;;;;5055627;28;20202;-68
2021/08/11 03:09:36;;;;;;;0.97;0.97;;;16.90;99.90;;;;;;5039174;28;20260;-68
2021/08/11 03:12:09;;;;;;;1.13;1.13;;;16.80;99.90;;;;;;5031022;28;21072;-68
2021/08/11 03:14:40;;;;;;;1.20;1.10;;;16.90;99.90;;;;;;5047723;28;20316;-68
2021/08/11 03:17:11;;;;;;;0.97;0.90;;;16.90;99.90;;;;;;5048042;28;20198;-68
2021/08/11 03:19:39;;;;;;;1.00;1.00;;;16.90;99.90;;;;;;5047986;28;20273;-68
2021/08/11 03:22:09;;;;;;;1.20;1.10;;;16.90;99.90;;;;;;5048646;28;20234;-68
2021/08/11 03:24:37;;;;;;;0.80;0.80;;;16.90;99.90;;;;;;5045671;28;20531;-68
2021/08/11 03:27:05;;;;;;;0.90;0.90;;;16.90;99.90;;;;;;5048087;28;20206;-68
2021/08/11 03:29:34;;;;;;;0.70;0.70;;;17.00;99.90;;;;;;5047676;28;20750;-67
2021/08/11 03:32:01;;;;;;;1.30;1.20;;;17.00;99.90;;;;;;5047898;28;20288;-68
2021/08/11 03:34:29;;;;;;;1.30;0.90;;;17.00;99.90;;;;;;5048527;28;20236;-67
2021/08/11 03:36:57;;;;;;;1.00;1.00;;;17.00;99.90;;;;;;5047452;28;20205;-68
2021/08/11 03:39:24;;;;;;;0.90;0.90;;;17.00;99.90;;;;;;5046674;28;20222;-67
2021/08/11 03:41:51;;;;;;;0.80;0.80;;;17.00;99.90;;;;;;5048845;28;20214;-68
2021/08/11 03:44:20;;;;;;;0.77;0.77;;;17.00;99.90;;;;;;5047026;28;20198;-68
2021/08/11 03:46:50;;;;;;;0.90;0.90;;;17.10;99.90;;;;;;5047892;28;20206;-68
2021/08/11 03:49:19;;;;;;;0.90;0.90;;;17.10;99.90;;;;;;5046660;28;20213;-68
2021/08/11 03:51:47;;;;;;;1.03;1.00;;;17.10;99.90;;;;;;5047280;28;20686;-68
2021/08/11 03:54:14;;;;;;;0.97;0.97;;;17.20;99.90;;;;;;5056950;28;20218;-69
2021/08/11 03:56:41;;;;;;;0.90;0.90;;;17.10;99.90;;;;;;5047469;28;20237;-68
2021/08/11 03:59:08;;;;;;;1.07;1.03;;;17.20;99.90;;;;;;5046879;28;20217;-68
2021/08/11 04:01:36;;;;;;;1.13;1.03;;;17.20;99.90;;;;;;5047867;28;20293;-68
2021/08/11 04:04:04;;;;;;;0.83;0.83;;;17.30;99.90;;;;;;5047544;28;20268;-69
2021/08/11 04:06:31;;;;;;;1.13;1.07;;;17.30;99.90;;;;;;5048544;28;20203;-68
2021/08/11 04:08:58;;;;;;;1.10;1.10;;;17.30;99.90;;;;;;5046828;28;20669;-68
2021/08/11 04:11:25;;;;;;;1.13;1.13;;;17.40;99.90;;;;;;5048383;28;20206;-68
2021/08/11 04:13:52;;;;;;;1.20;1.10;;;17.50;99.90;;;;;;5047654;28;20241;-68
2021/08/11 04:16:19;;;;;;;1.10;1.10;;;17.50;99.90;;;;;;5048462;28;20255;-67
2021/08/11 04:18:46;;;;;;;1.30;1.20;;;17.60;99.90;;;;;;5048901;28;20696;-68
2021/08/11 04:21:14;;;;;;;1.20;1.20;;;17.70;99.90;;;;;;5047865;28;20202;-67
2021/08/11 04:23:41;;;;;;;1.40;1.30;;;17.70;99.90;;;;;;5046429;28;20266;-67
2021/08/11 04:26:08;;;;;;;1.37;1.27;;;17.80;99.90;;;;;;5047190;28;20204;-68
2021/08/11 04:28:34;;;;;;;1.00;1.00;;;17.80;99.90;;;;;;5048358;28;20207;-68
2021/08/11 04:31:01;;;;;;;1.20;1.05;;;17.80;99.90;;;;;;5047603;28;20477;-68
2021/08/11 04:33:28;;;;;;;1.00;1.00;;;17.90;99.90;;;;;;5048073;28;20230;-68
2021/08/11 04:35:55;;;;;;;1.03;1.03;;;17.90;99.90;;;;;;5047774;28;20266;-68
2021/08/11 04:38:24;;;;;;;1.77;1.15;;;18.00;99.90;;;;;;5046590;28;20199;-68
2021/08/11 04:40:50;;;;;;;1.23;1.23;;;18.00;99.90;;;;;;5047483;28;20218;-68
2021/08/11 04:43:17;;;;;;;1.10;1.10;;;18.10;99.90;;;;;;5047288;28;20299;-68
2021/08/11 04:45:44;;;;;;;1.40;1.30;;;18.10;99.90;;;;;;5047664;28;20270;-68
2021/08/11 04:48:11;;;;;;;1.48;1.38;;;18.20;99.90;;;;;;5047900;28;20205;-68
2021/08/11 04:50:38;;;;;;;1.40;1.30;;;18.20;99.90;;;;;;5047871;28;20259;-68
2021/08/11 04:53:05;;;;;;;1.50;1.40;;;18.30;99.90;;;;;;5045738;28;20312;-68
2021/08/11 04:55:33;;;;;;;1.83;1.27;;;18.30;99.90;;;;;;5047900;28;20720;-68
2021/08/11 04:58:00;;;;;;;1.50;1.40;;;18.30;99.90;;;;;;5047893;28;20296;-68
2021/08/11 05:00:27;;;;;;;1.30;1.23;;;18.30;99.90;;;;;;5047922;28;20593;-68
2021/08/11 05:02:54;;;;;;;1.27;1.20;;;18.40;99.90;;;;;;5047576;28;20220;-68
2021/08/11 05:05:21;;;;;;;1.70;1.60;;;18.40;99.90;;;;;;5047744;28;20211;-68
2021/08/11 05:07:48;;;;;;;1.20;1.10;;;18.50;99.90;;;;;;5046464;28;20760;-68
2021/08/11 05:10:16;;;;;;;1.23;1.20;;;18.50;99.90;;;;;;5046598;28;20631;-68
2021/08/11 05:12:44;;;;;;;1.40;1.30;;;18.60;99.90;;;;;;5047137;28;20293;-68
2021/08/11 05:15:12;;;;;;;1.48;1.40;;;18.70;99.90;;;;;;5047179;28;20217;-68
2021/08/11 05:17:39;;;;;;;1.48;1.38;;;18.80;99.90;;;;;;5047148;28;20266;-68
2021/08/11 05:20:06;;;;;;;1.30;1.20;;;18.90;99.90;;;;;;5047639;28;20229;-68
2021/08/11 05:22:33;;;;;;;1.23;1.23;;;19.10;99.90;;;;;;5046716;28;20588;-68
2021/08/11 05:25:00;;;;;;;1.20;1.20;;;19.20;99.90;;;;;;5046199;28;20734;-68
2021/08/11 05:27:27;;;;;;;1.13;1.13;;;19.30;99.90;;;;;;5047741;28;20267;-68
2021/08/11 05:29:55;;;;;;;1.73;1.52;;;19.40;99.90;;;;;;5047154;28;20221;-68
2021/08/11 05:32:22;;;;;;;1.50;1.40;;;19.50;99.90;;;;;;5047789;28;20237;-68
2021/08/11 05:34:49;;;;;;;2.53;1.70;;;19.60;99.90;;;;;;5051050;28;20315;-68
2021/08/11 05:37:16;;;;;;;1.80;1.70;;;19.60;99.90;;;;;;5050223;28;20201;-68
2021/08/11 05:39:43;;;;;;;1.60;1.50;;;19.70;99.90;;;;;;5048948;28;20666;-68
2021/08/11 05:42:10;;;;;;;1.60;1.50;;;19.80;99.90;;;;;;5051150;28;20311;-68
2021/08/11 05:44:37;;;;;;;1.45;1.35;;;19.90;99.90;;;;;;5050627;28;20212;-68
2021/08/11 05:47:07;;;;;;;1.60;1.50;;;20.10;99.90;;;;;;5050660;28;20245;-68
2021/08/11 05:49:36;;;;;;;1.52;1.20;;;20.20;99.90;;;;;;5050596;28;20502;-68
2021/08/11 05:52:03;;;;;;;1.58;1.40;;;20.30;99.90;;;;;;5050294;28;20696;-68
2021/08/11 05:54:30;;;;;;;1.95;1.85;;;20.50;99.90;;;;;;5048486;28;20218;-68
2021/08/11 05:56:57;;;;;;;1.92;1.67;;;20.70;99.90;;;;;;5051467;28;20253;-68
2021/08/11 05:59:24;;;;;;;1.80;1.70;;;20.90;99.90;;;;;;5050371;28;20230;-68
2021/08/11 06:01:50;;;;;;;2.15;1.65;;;21.10;99.90;;;;;;5050569;28;20284;-68
2021/08/11 06:04:20;;;;;;;1.75;1.65;;;21.50;99.90;;;;;;5050557;28;20210;-68
2021/08/11 06:06:47;;;;;;;1.75;1.65;;;21.80;99.90;;;;;;5049878;28;20198;-68
2021/08/11 06:09:14;;;;;;;1.63;1.52;;;22.10;99.90;;;;;;5047247;28;20193;-68
2021/08/11 06:11:41;;;;;;;1.73;1.63;;;22.40;99.90;;;;;;5050031;28;20202;-68
2021/08/11 06:14:08;;;;;;;1.70;1.60;;;22.90;99.90;;;;;;5050082;28;20220;-68
2021/08/11 06:16:36;;;;;;;1.50;1.40;;;23.80;99.90;;;;;;5047703;28;20240;-68
2021/08/11 06:19:03;;;;;;;2.08;1.98;;;25.00;99.90;;;;;;5034196;28;20287;-68
2021/08/11 06:21:32;;;;;;;2.78;2.58;;;26.30;99.60;;;;;;5045372;28;21450;-68
2021/08/11 06:23:59;;;;;;;3.35;2.80;;;26.80;96.90;;;;;;5038062;28;20577;-68
2021/08/11 06:26:26;;;;;;;2.63;2.42;;;28.60;95.80;;;;;;5043203;28;20720;-68
2021/08/11 06:28:53;;;;;;;1.98;1.88;;;29.80;93.00;;;;;;5042215;28;20261;-68
2021/08/11 06:31:24;;;;;;;2.42;1.90;;;31.00;90.10;;;;;;5038983;28;20216;-69
2021/08/11 06:33:51;;;;;;;2.33;1.70;;;32.40;83.10;;;;;;5042139;28;20316;-68
2021/08/11 06:36:18;;;;;;;2.10;1.90;;;33.90;74.70;;;;;;5046011;28;20367;-68
2021/08/11 06:38:47;;;;;;;1.88;1.77;;;35.40;67.40;;;;;;5038568;28;20186;-69
2021/08/11 06:41:16;;;;;;;1.83;1.73;;;36.50;63.00;;;;;;5042735;28;20200;-69
2021/08/11 06:43:53;;;;;;;1.90;1.80;;;37.00;59.20;;;;;;5044078;28;20229;-69
2021/08/11 06:46:20;;;;;;;2.30;2.03;;;36.40;58.40;;;;;;5059279;28;20201;-69
2021/08/11 06:48:48;;;;;;;2.00;1.80;;;35.50;59.30;;;;;;5038995;28;20968;-69
2021/08/11 06:51:16;;;;;;;1.52;1.48;;;34.40;60.20;;;;;;5042780;28;20193;-74
2021/08/11 06:53:43;;;;;;;2.13;2.03;;;33.20;62.30;;;;;;5043794;28;20310;-73
2021/08/11 06:56:11;;;;;;;1.95;1.85;;;32.30;63.70;;;;;;5045621;28;20705;-73
2021/08/11 06:58:38;;;;;;;1.98;1.80;;;31.30;65.50;;;;;;5046063;28;20313;-73
2021/08/11 07:01:05;;;;;;;2.17;2.08;;;30.60;67.20;;;;;;5043817;28;20202;-73
2021/08/11 07:03:32;;;;;;;1.77;1.67;;;30.00;68.30;;;;;;5040673;28;20614;-74
2021/08/11 07:05:59;;;;;;;1.65;1.50;;;29.40;69.00;;;;;;5044101;28;20202;-73
2021/08/11 07:08:26;;;;;;;1.98;1.88;;;28.90;70.60;;;;;;5056957;28;20244;-73
2021/08/11 07:10:53;;;;;;;1.60;1.50;;;28.70;71.20;;;;;;5040547;28;20194;-69
2021/08/11 07:13:22;;;;;;;4.13;2.25;;;28.10;72.00;;;;;;5041014;28;20202;-69
2021/08/11 07:15:49;;;;;;;1.92;1.83;;;28.10;72.50;;;;;;5043406;28;20305;-70
2021/08/11 07:18:18;;;;;;;1.80;1.70;;;28.10;72.80;;;;;;5045019;28;20213;-68
2021/08/11 07:20:45;;;;;;;1.80;1.70;;;28.60;73.60;;;;;;5045518;28;20198;-69
2021/08/11 07:23:13;;;;;;;2.00;1.80;;;28.00;73.20;;;;;;5039247;28;20305;-69
2021/08/11 07:25:40;;;;;;;1.98;1.85;;;28.00;73.60;;;;;;5042199;28;20300;-69
2021/08/11 07:28:08;;;;;;;3.10;1.85;;;28.10;74.00;;;;;;5044078;28;20565;-69
2021/08/11 07:30:37;;;;;;;2.00;1.90;;;28.20;73.30;;;;;;5043722;28;20314;-67
2021/08/11 07:33:07;;;;;;;3.10;2.00;;;28.50;73.40;;;;;;5043034;28;20604;-69
2021/08/11 07:35:34;;;;;;;2.33;2.22;;;29.00;72.10;;;;;;5040573;28;20798;-69
2021/08/11 07:38:02;;;;;;;3.08;2.55;;;30.00;70.70;;;;;;5040958;28;20263;-70
2021/08/11 07:40:30;;;;;;;2.75;2.53;;;31.80;67.20;;;;;;5043049;28;20190;-68
2021/08/11 07:42:59;;;;;;;2.72;2.38;;;33.20;64.00;;;;;;5044427;28;20729;-68
2021/08/11 07:45:29;;;;;;;4.10;2.70;;;34.90;60.20;;;;;;5038382;28;20202;-68
2021/08/11 07:47:58;;;;;;;4.35;2.97;;;36.10;57.20;;;;;;5043040;28;20225;-68
2021/08/11 07:50:27;;;;;;;3.33;2.80;;;37.20;54.20;;;;;;5042578;28;20198;-68
2021/08/11 07:52:54;;;;;;;2.45;2.25;;;37.90;51.70;;;;;;5042188;28;20202;-68
2021/08/11 07:55:21;;;;;;;2.95;2.75;;;38.80;50.60;;;;;;5045495;28;20218;-68
2021/08/11 07:57:48;;;;;;;2.65;2.45;;;39.80;48.30;;;;;;5044388;28;20198;-68
2021/08/11 08:00:18;;;;;;;2.90;2.70;;;40.50;46.60;;;;;;5041767;28;20205;-68
2021/08/11 08:02:46;;;;;;;2.70;2.50;;;40.50;45.50;;;;;;5042292;28;20193;-68
2021/08/11 08:05:14;;;;;;;3.15;2.95;;;40.10;43.90;;;;;;5042692;28;20203;-67
2021/08/11 08:07:41;;;;;;;2.40;2.30;;;39.90;44.50;;;;;;5041433;28;20656;-68
2021/08/11 08:10:09;;;;;;;2.60;2.40;;;40.20;44.10;;;;;;5043106;28;20233;-69
2021/08/11 08:12:38;;;;;;;3.17;2.50;;;41.00;43.10;;;;;;5044978;28;20201;-67
2021/08/11 08:15:06;;;;;;;2.70;2.50;;;42.30;42.10;;;;;;5042644;28;20217;-68
2021/08/11 08:17:33;;;;;;;4.07;3.10;;;43.80;39.30;;;;;;5043657;28;20227;-70
2021/08/11 08:19:59;;;;;;;4.90;3.10;;;44.90;37.80;;;;;;5042706;28;20537;-69
2021/08/11 08:22:28;;;;;;;3.08;2.65;;;44.60;36.60;;;;;;5043481;28;20268;-69
2021/08/11 08:24:55;;;;;;;3.03;2.83;;;43.30;37.10;;;;;;5041816;28;20193;-69
2021/08/11 08:27:23;;;;;;;3.20;3.00;;;42.30;37.90;;;;;;5044345;28;20204;-69
2021/08/11 08:29:50;;;;;;;2.33;2.22;;;41.60;38.20;;;;;;5042740;28;20236;-70
2021/08/11 08:32:17;;;;;;;2.63;2.53;;;41.40;38.70;;;;;;5042354;28;20572;-69
2021/08/11 08:34:45;;;;;;;2.65;2.55;;;41.40;38.50;;;;;;5043245;28;20596;-70
2021/08/11 08:37:11;;;;;;;2.50;2.30;;;41.10;36.60;;;;;;5041165;28;20224;-70
2021/08/11 08:39:40;;;;;;;2.58;2.38;;;40.60;37.10;;;;;;5040063;28;20221;-69
2021/08/11 08:42:07;;;;;;;2.50;2.40;;;40.50;37.30;;;;;;5044479;28;20710;-70
2021/08/11 08:44:35;;;;;;;2.50;2.40;;;41.10;37.60;;;;;;5042633;28;20197;-70
2021/08/11 08:47:03;;;;;;;2.58;2.45;;;40.90;36.30;;;;;;5043578;28;20205;-70
2021/08/11 08:49:30;;;;;;;2.47;2.38;;;39.80;36.60;;;;;;5040817;28;20202;-69
2021/08/11 08:51:57;;;;;;;2.40;2.20;;;38.50;37.50;;;;;;5042086;28;20197;-69
2021/08/11 08:54:28;;;;;;;2.13;2.03;;;37.10;38.90;;;;;;5040359;28;20189;-69
2021/08/11 08:56:56;;;;;;;2.25;2.13;;;36.00;40.00;;;;;;5041161;28;20249;-71
2021/08/11 08:59:23;;;;;;;2.00;1.90;;;35.10;40.90;;;;;;5038490;28;20607;-70
2021/08/11 09:01:50;;;;;;;2.90;2.70;;;34.40;41.80;;;;;;5058857;28;20205;-70
2021/08/11 09:04:17;;;;;;;2.50;2.25;;;33.70;42.50;;;;;;5043151;28;20220;-70
2021/08/11 09:06:44;;;;;;;2.22;2.13;;;33.10;43.20;;;;;;5043822;28;20658;-70
2021/08/11 09:09:12;;;;;;;2.30;2.20;;;32.70;43.70;;;;;;5043287;28;20547;-70
2021/08/11 09:11:41;;;;;;;2.30;2.20;;;32.70;44.10;;;;;;5048902;28;20275;-68
2021/08/11 09:14:25;;;;;;;2.95;2.75;;;33.20;43.90;;;;;;5045799;28;20684;-67
2021/08/11 09:16:54;;;;;;;2.58;2.47;;;33.90;43.30;;;;;;5038121;28;20792;-68
2021/08/11 09:19:21;;;;;;;3.00;2.70;;;34.30;42.90;;;;;;5031917;28;20201;-68
2021/08/11 09:22:02;;;;;;;2.85;2.65;;;34.80;42.40;;;;;;5042909;28;20268;-67
2021/08/11 09:24:32;;;;;;;2.92;2.72;;;35.60;41.70;;;;;;5045054;28;20255;-68
2021/08/11 09:27:20;;;;;;;2.85;2.63;;;36.70;40.60;;;;;;5046639;28;20194;-68
2021/08/11 09:30:10;;;;;;;2.90;2.67;;;37.70;39.20;;;;;;5044833;28;20206;-68
2021/08/11 09:32:49;;;;;;;2.83;2.63;;;38.00;39.00;;;;;;5045305;28;20627;-69
2021/08/11 09:35:18;;;;;;;3.22;2.78;;;38.80;38.40;;;;;;5041329;28;20657;-69
2021/08/11 09:37:45;;;;;;;3.00;2.80;;;39.60;37.40;;;;;;5042307;28;20202;-68
2021/08/11 09:40:14;;;;;;;2.40;2.28;;;40.00;36.70;;;;;;5043044;28;20220;-68
2021/08/11 09:42:41;;;;;;;2.70;2.50;;;40.10;36.40;;;;;;5045321;28;20201;-68
2021/08/11 09:45:11;;;;;;;2.45;2.35;;;39.60;36.30;;;;;;5040418;28;20760;-69
2021/08/11 09:47:39;;;;;;;2.58;2.38;;;39.30;36.70;;;;;;5043881;28;20197;-68
2021/08/11 09:50:08;;;;;;;2.30;2.20;;;39.70;36.70;;;;;;5046266;28;20197;-69
2021/08/11 09:52:48;;;;;;;2.40;2.30;;;41.00;35.80;;;;;;5038032;28;20239;-68
2021/08/11 09:55:15;;;;;;;2.40;2.20;;;42.50;34.50;;;;;;5043223;28;20205;-69
2021/08/11 09:57:43;;;;;;;2.40;2.30;;;43.90;33.30;;;;;;5043637;28;20543;-69
2021/08/11 10:00:14;;;;;;;2.55;2.45;;;45.10;32.20;;;;;;5044941;28;20197;-69
2021/08/11 10:02:42;;;;;;;2.40;2.30;;;46.10;30.80;;;;;;5044429;28;20742;-69
2021/08/11 10:05:10;;;;;;;2.45;2.35;;;47.00;30.30;;;;;;5046781;28;20224;-69
2021/08/11 10:07:38;;;;;;;2.30;2.20;;;47.70;29.50;;;;;;5046189;28;20205;-69
2021/08/11 10:10:07;;;;;;;2.30;2.20;;;48.00;29.30;;;;;;5045383;28;20276;-69
2021/08/11 10:12:35;;;;;;;2.50;2.40;;;46.90;28.80;;;;;;5045556;28;20269;-69
2021/08/11 10:15:06;;;;;;;2.40;2.30;;;45.20;29.60;;;;;;5044855;28;20208;-69
2021/08/11 10:17:36;;;;;;;2.40;2.30;;;43.70;30.20;;;;;;5043800;28;20374;-69
2021/08/11 10:20:05;;;;;;;2.13;1.98;;;42.00;30.90;;;;;;5042893;28;20252;-69
2021/08/11 10:22:33;;;;;;;2.50;2.30;;;40.30;31.90;;;;;;5042166;28;20287;-69
2021/08/11 10:25:01;;;;;;;2.33;2.22;;;38.90;32.80;;;;;;5044657;28;20678;-68
2021/08/11 10:27:28;;;;;;;2.03;1.92;;;37.90;33.70;;;;;;5043500;28;20258;-69
2021/08/11 10:29:56;;;;;;;1.92;1.83;;;37.20;34.40;;;;;;5046917;28;20189;-68
2021/08/11 10:32:24;;;;;;;1.98;1.88;;;37.40;34.70;;;;;;5043105;28;21208;-68
2021/08/11 10:34:55;;;;;;;1.77;1.73;;;38.40;34.00;;;;;;5042100;28;20247;-68
2021/08/11 10:37:24;;;;;;;2.20;2.10;;;40.00;33.10;;;;;;5044037;28;20225;-69
2021/08/11 10:39:52;;;;;;;1.92;1.83;;;41.70;31.60;;;;;;5039270;28;20225;-69
2021/08/11 10:42:19;;;;;;;1.70;1.70;;;42.90;30.50;;;;;;5058451;28;20217;-69
2021/08/11 10:44:47;;;;;;;2.00;1.90;;;43.50;29.50;;;;;;5045584;28;20272;-69
2021/08/11 10:47:15;;;;;;;2.22;1.98;;;43.70;29.30;;;;;;5045675;28;20198;-69
2021/08/11 10:49:55;;;;;;;2.38;2.28;;;43.20;28.50;;;;;;5044827;28;20205;-69
2021/08/11 10:52:22;;;;;;;1.88;1.88;;;42.40;28.90;;;;;;5042064;28;20201;-67
2021/08/11 10:54:51;;;;;;;2.17;2.08;;;41.80;29.40;;;;;;5043989;28;20657;-68
2021/08/11 10:57:48;;;;;;;2.08;1.98;;;40.90;29.80;;;;;;5057495;28;20217;-68
2021/08/11 11:00:39;;;;;;;2.10;2.00;;;39.80;30.50;;;;;;5037688;28;20247;-67
2021/08/11 11:03:06;;;;;;;1.85;1.70;;;39.10;31.70;;;;;;5036464;28;20590;-74
2021/08/11 11:06:05;;;;;;;2.35;2.22;;;40.00;31.30;;;;;;5035856;28;20206;-77
2021/08/11 11:08:38;;;;;;;1.92;1.83;;;41.00;30.50;;;;;;5037820;28;20204;-78
2021/08/11 11:11:37;;;;;;;2.22;2.13;;;41.60;29.90;;;;;;5043181;28;20304;-78
2021/08/11 11:14:07;;;;;;;3.10;2.53;;;42.60;29.50;;;;;;5000598;28;20269;-77
2021/08/11 11:17:10;;;;;;;3.88;2.58;;;43.10;29.00;;;;;;5001311;28;20233;-78
2021/08/11 11:20:28;;;;;;;2.00;1.90;;;41.80;29.20;;;;;;4996228;28;20293;-77
2021/08/11 11:23:07;;;;;;;1.88;1.77;;;39.60;30.70;;;;;;4897085;29;20273;-77
2021/08/11 11:25:59;;;;;;;2.03;1.90;;;37.90;31.80;;;;;;4887762;29;20642;-76
2021/08/11 11:28:58;;;;;;;2.22;2.13;;;36.50;32.90;;;;;;4886910;29;20206;-77
2021/08/11 11:31:46;;;;;;;2.10;2.00;;;35.30;34.00;;;;;;4902240;29;20289;-76
2021/08/11 11:34:35;;;;;;;1.60;1.50;;;34.30;35.10;;;;;;4899678;29;20218;-77
2021/08/11 11:37:22;;;;;;;1.98;1.80;;;33.40;36.10;;;;;;4882657;29;20714;-76
2021/08/11 11:40:12;;;;;;;1.75;1.65;;;32.70;36.90;;;;;;4887624;29;20203;-73
2021/08/11 11:42:40;;;;;;;1.40;1.40;;;32.10;37.60;;;;;;4892052;29;20238;-74
2021/08/11 11:45:08;;;;;;;1.52;1.42;;;31.70;38.20;;;;;;4905449;29;20255;-74
2021/08/11 11:48:12;;;;;;;1.15;1.15;;;31.20;38.60;;;;;;4901969;29;20996;-76
2021/08/11 11:50:45;;;;;;;1.30;1.30;;;31.00;39.30;;;;;;4913375;28;20655;-74
2021/08/11 11:53:30;;;;;;;1.30;1.30;;;30.80;39.70;;;;;;4939988;28;20716;-74
2021/08/11 11:56:08;;;;;;;1.60;1.50;;;30.70;40.10;;;;;;4962650;28;20200;-73
2021/08/11 11:58:42;;;;;;;1.70;1.60;;;30.70;40.40;;;;;;4970255;28;20200;-74
2021/08/11 12:01:11;;;;;;;1.38;1.38;;;31.20;40.30;;;;;;5041886;28;20270;-74
2021/08/11 12:03:40;;;;;;;1.60;1.50;;;31.50;40.00;;;;;;5040530;28;20298;-74
2021/08/11 12:06:08;;;;;;;1.17;1.17;;;31.40;40.10;;;;;;5048329;28;20214;-74
2021/08/11 12:08:36;;;;;;;1.65;1.55;;;31.00;40.50;;;;;;5040023;28;20746;-73
2021/08/11 12:11:08;;;;;;;1.80;1.70;;;30.70;41.00;;;;;;5039983;28;20197;-76
2021/08/11 12:13:43;;;;;;;1.80;1.70;;;30.60;41.50;;;;;;5040661;28;20206;-74
2021/08/11 12:16:12;;;;;;;1.38;1.38;;;31.00;41.70;;;;;;5044094;28;20677;-75
2021/08/11 12:18:41;;;;;;;1.50;1.40;;;31.50;41.40;;;;;;5041094;28;20206;-74
2021/08/11 12:21:09;;;;;;;1.20;1.20;;;32.00;41.10;;;;;;5042870;28;20208;-74
2021/08/11 12:23:36;;;;;;;1.45;1.40;;;32.00;41.10;;;;;;5039934;28;20212;-74
2021/08/11 12:26:07;;;;;;;1.20;1.20;;;31.60;41.50;;;;;;5041661;28;20205;-74
2021/08/11 12:28:36;;;;;;;1.35;1.35;;;31.20;42.00;;;;;;5033169;28;20514;-74
2021/08/11 12:31:06;;;;;;;1.38;1.38;;;31.00;42.60;;;;;;5041572;28;20623;-75
2021/08/11 12:33:36;;;;;;;1.50;1.40;;;30.90;43.10;;;;;;5041558;28;20228;-75
2021/08/11 12:36:05;;;;;;;3.80;2.92;;;30.70;43.40;;;;;;5043153;28;20198;-75
2021/08/11 12:38:34;;;;;;;27.40;13.68;;;30.40;43.70;;;;;;5040605;28;20245;-75
2021/08/11 12:41:18;;;;;;;19.70;9.95;;;30.10;44.00;;;;;;5043787;28;20748;-76
2021/08/11 12:43:46;;;;;;;13.07;7.85;;;29.70;44.20;;;;;;5043808;28;20436;-74
2021/08/11 12:46:13;;;;;;;9.98;5.50;;;29.40;45.00;;;;;;5045108;28;20642;-75
2021/08/11 12:48:40;;;;;;;8.57;5.15;;;29.10;45.40;;;;;;5060176;28;20205;-76
2021/08/11 12:51:19;;;;;;;4.57;3.28;;;28.80;45.90;;;;;;5048158;28;20205;-75
2021/08/11 12:54:02;;;;;;;3.25;2.75;;;28.60;46.70;;;;;;5044908;28;20225;-75
2021/08/11 12:56:30;;;;;;;2.40;2.20;;;28.30;46.70;;;;;;5033919;28;20365;-75
2021/08/11 12:58:59;;;;;;;2.30;2.10;;;28.10;47.10;;;;;;5044570;28;20193;-76
2021/08/11 13:01:30;;;;;;;2.25;2.08;;;27.90;47.40;;;;;;5054836;28;20190;-74